Funkley, Minnesota
Current Conditions -  °F | °C
As of 4:34 AM on Friday 24 Oct 2014 (Local Time) from KVWU Reporting Station
Clear Clear  
Wind Chill: 55°   Ceiling: Unl
Heat Index: 55°   Visibility: 10mi
Dew Point: 45°   Wind: 0mph
Humidity: 67%   Direction: NA
Pressure: 29.77"   Gusts: NA
Location:  47.7306°N, 94.3762°W
Report Text: KVWU 240934Z AUTO 00000KT 10SM CLR 13/07 A2977 RMK AO2
Loading
Personal Weather Stations






























Interactive Weather Map
Tropical Storm Tracking
New forecast layout! Learn more

10-Day Weather Forecast

Advertisements
Track Severe Weather on mobile